Time;durP1;ratioP1;P1;durP2;ratioP2;P2;SDS_P1;SDS_P2;PMS_P1;PMS_P2;Temp;Humidity;BMP_temperature;BMP_pressure;BME280_temperature;BME280_humidity;BME280_pressure;Samples;Min_cycle;Max_cycle;Signal;HPM_P1;HPM_P2
2022/06/13 00:02:04;;;;;;;2.90;2.47;;;20.70;99.90;;;;;;5027756;28;20488;-79
2022/06/13 00:04:49;;;;;;;2.60;2.17;;;20.70;99.90;;;;;;5045350;28;20391;-80
2022/06/13 00:07:34;;;;;;;2.60;2.40;;;20.60;99.90;;;;;;5028751;28;20390;-82
2022/06/13 00:10:19;;;;;;;3.43;1.90;;;20.60;99.90;;;;;;5043154;28;20433;-82
2022/06/13 00:13:04;;;;;;;2.40;2.20;;;20.60;99.90;;;;;;5026015;28;20394;-82
2022/06/13 00:15:48;;;;;;;2.83;2.50;;;20.60;99.90;;;;;;5040231;28;20394;-82
2022/06/13 00:18:33;;;;;;;2.87;2.27;;;20.60;99.90;;;;;;5040241;28;20557;-81
2022/06/13 00:21:21;;;;;;;4.43;2.33;;;20.50;99.90;;;;;;5040751;28;20453;-82
2022/06/13 00:24:07;;;;;;;3.90;2.73;;;20.50;99.90;;;;;;5042125;28;20406;-82
2022/06/13 00:26:51;;;;;;;3.57;2.90;;;20.50;99.90;;;;;;5042397;28;20800;-82
2022/06/13 00:29:38;;;;;;;3.10;2.20;;;20.60;99.90;;;;;;5041324;28;20441;-82
2022/06/13 00:32:23;;;;;;;4.40;2.60;;;20.60;99.90;;;;;;5040233;28;20395;-82
2022/06/13 00:35:08;;;;;;;2.00;1.80;;;20.70;99.90;;;;;;5039675;28;20399;-82
2022/06/13 00:37:52;;;;;;;2.83;2.47;;;20.60;99.90;;;;;;5039432;28;20473;-82
2022/06/13 00:40:37;;;;;;;3.10;2.03;;;20.60;99.90;;;;;;5039241;28;20430;-82
2022/06/13 00:43:21;;;;;;;4.20;2.17;;;20.60;99.90;;;;;;5024337;28;20457;-82
2022/06/13 00:46:23;;;;;;;3.20;2.40;;;20.60;99.90;;;;;;5040909;28;20840;-81
2022/06/13 00:49:12;;;;;;;3.23;2.50;;;20.70;99.90;;;;;;5043082;28;20391;-82
2022/06/13 00:52:08;;;;;;;2.90;2.70;;;20.60;99.90;;;;;;5039571;28;20397;-82
2022/06/13 00:54:55;;;;;;;2.23;1.90;;;20.60;99.90;;;;;;5039771;28;20931;-82
2022/06/13 00:57:40;;;;;;;2.20;1.70;;;20.60;99.90;;;;;;5038463;28;20531;-82
2022/06/13 01:00:25;;;;;;;5.33;2.83;;;20.60;99.90;;;;;;5024139;28;20391;-83
2022/06/13 01:03:12;;;;;;;2.40;2.20;;;20.60;99.90;;;;;;5038695;28;20477;-83
2022/06/13 01:06:01;;;;;;;3.10;2.43;;;20.60;99.90;;;;;;5039027;28;20398;-83
2022/06/13 01:08:45;;;;;;;4.93;2.73;;;20.50;99.90;;;;;;5039102;28;20745;-83
2022/06/13 01:11:30;;;;;;;2.80;2.33;;;20.40;99.90;;;;;;5038952;28;20905;-83
2022/06/13 01:14:38;;;;;;;2.27;2.17;;;20.50;99.90;;;;;;5039086;28;20411;-83
2022/06/13 01:17:41;;;;;;;2.33;2.03;;;20.40;99.90;;;;;;5038990;28;20398;-83
2022/06/13 01:20:49;;;;;;;3.30;2.00;;;20.40;99.90;;;;;;5038735;28;20490;-83
2022/06/13 01:23:59;;;;;;;2.80;2.60;;;20.30;99.90;;;;;;5039095;28;20407;-83
2022/06/13 01:27:04;;;;;;;3.17;2.20;;;20.20;99.90;;;;;;5038149;28;20433;-83
2022/06/13 01:29:56;;;;;;;2.50;2.10;;;20.20;99.90;;;;;;5038942;28;20422;-82
2022/06/13 01:33:12;;;;;;;5.13;2.50;;;20.10;99.90;;;;;;5038854;28;20383;-83
2022/06/13 01:36:16;;;;;;;9.13;2.23;;;20.10;99.90;;;;;;5038938;28;20469;-83
2022/06/13 01:39:28;;;;;;;2.80;1.90;;;20.10;99.90;;;;;;5039023;28;20743;-82
2022/06/13 01:42:38;;;;;;;2.43;2.23;;;20.00;99.90;;;;;;5038829;28;20438;-82
2022/06/13 01:45:50;;;;;;;2.07;1.87;;;20.00;99.90;;;;;;5038982;28;20438;-82
2022/06/13 01:48:53;;;;;;;1.77;1.67;;;19.90;99.90;;;;;;5038441;28;20407;-83
2022/06/13 01:51:50;;;;;;;4.57;2.23;;;19.80;99.90;;;;;;5037627;28;20831;-83
2022/06/13 01:54:54;;;;;;;2.90;1.97;;;19.70;99.90;;;;;;5038031;28;20415;-82
2022/06/13 01:57:46;;;;;;;2.77;2.20;;;19.70;99.90;;;;;;5038149;28;20650;-82
2022/06/13 02:00:33;;;;;;;3.83;1.87;;;19.60;99.90;;;;;;5038465;28;20391;-82
2022/06/13 02:03:26;;;;;;;3.70;2.03;;;19.60;99.90;;;;;;5049761;28;20462;-82
2022/06/13 02:06:18;;;;;;;1.67;1.57;;;19.60;99.90;;;;;;5050486;28;20387;-83
2022/06/13 02:09:22;;;;;;;2.97;2.40;;;19.50;99.90;;;;;;5050589;28;20371;-82
2022/06/13 02:12:07;;;;;;;2.20;2.00;;;19.40;99.90;;;;;;5038729;28;20375;-83
2022/06/13 02:15:00;;;;;;;2.40;2.20;;;19.40;99.90;;;;;;5038431;28;20410;-82
2022/06/13 02:18:07;;;;;;;2.60;2.17;;;19.40;99.90;;;;;;5038519;28;20403;-82
2022/06/13 02:20:56;;;;;;;2.90;1.90;;;19.30;99.90;;;;;;5038710;28;20441;-83
2022/06/13 02:23:48;;;;;;;3.37;2.30;;;19.30;99.90;;;;;;5038872;28;20387;-82
2022/06/13 02:26:35;;;;;;;6.30;2.10;;;19.30;99.90;;;;;;5038643;28;20394;-82
2022/06/13 02:29:28;;;;;;;2.67;1.93;;;19.20;99.90;;;;;;5038080;28;20402;-83
2022/06/13 02:32:19;;;;;;;2.30;2.10;;;19.20;99.90;;;;;;5037606;28;20442;-82
2022/06/13 02:35:10;;;;;;;5.90;2.17;;;19.10;99.90;;;;;;5037050;28;20383;-82
2022/06/13 02:38:01;;;;;;;4.03;2.30;;;19.10;99.90;;;;;;5038045;28;20390;-83
2022/06/13 02:40:51;;;;;;;4.43;2.10;;;19.00;99.90;;;;;;5038953;28;20386;-82
2022/06/13 02:43:46;;;;;;;2.93;2.43;;;18.90;99.90;;;;;;5037641;28;20950;-83
2022/06/13 02:46:40;;;;;;;3.07;2.77;;;18.80;99.90;;;;;;5037981;28;20374;-83
2022/06/13 02:49:31;;;;;;;3.80;3.23;;;18.90;99.90;;;;;;5038238;28;20379;-83
2022/06/13 02:52:25;;;;;;;2.40;2.20;;;18.80;99.90;;;;;;5023291;28;20378;-82
2022/06/13 02:55:13;;;;;;;2.77;2.07;;;18.80;99.90;;;;;;5038686;28;20386;-83
2022/06/13 02:58:18;;;;;;;3.07;2.17;;;18.80;99.90;;;;;;5038356;28;20454;-82
2022/06/13 03:01:13;;;;;;;5.73;2.30;;;18.80;99.90;;;;;;5054082;28;20950;-82
2022/06/13 03:04:11;;;;;;;4.33;2.20;;;18.70;99.90;;;;;;5043391;28;20406;-81
2022/06/13 03:07:19;;;;;;;4.80;3.00;;;18.60;99.90;;;;;;5048414;28;20418;-82
2022/06/13 03:10:23;;;;;;;2.70;2.37;;;18.50;99.90;;;;;;5063032;28;20406;-80
2022/06/13 03:13:22;;;;;;;2.27;1.97;;;18.50;99.90;;;;;;5052194;28;20890;-82
2022/06/13 03:16:21;;;;;;;5.83;2.70;;;18.40;99.90;;;;;;5063427;28;20422;-81
2022/06/13 03:19:12;;;;;;;2.97;2.77;;;18.30;99.90;;;;;;5063725;28;20413;-79
2022/06/13 03:22:09;;;;;;;2.23;2.00;;;18.30;99.90;;;;;;5063709;28;20453;-81
2022/06/13 03:25:05;;;;;;;2.43;2.00;;;18.30;99.90;;;;;;5063842;28;20417;-80
2022/06/13 03:28:08;;;;;;;3.23;2.50;;;18.30;99.90;;;;;;5063228;28;20410;-79
2022/06/13 03:31:07;;;;;;;2.30;2.07;;;18.20;99.90;;;;;;5051508;28;20393;-82
2022/06/13 03:33:58;;;;;;;6.63;2.47;;;18.10;99.90;;;;;;5045279;28;20393;-82
2022/06/13 03:36:49;;;;;;;2.30;2.10;;;18.10;99.90;;;;;;5045299;28;20391;-82
2022/06/13 03:39:51;;;;;;;2.43;2.23;;;18.00;99.90;;;;;;5045759;28;20390;-83
2022/06/13 03:42:52;;;;;;;2.73;2.30;;;18.00;99.90;;;;;;5030846;28;20962;-82
2022/06/13 03:45:41;;;;;;;2.60;2.40;;;18.10;99.90;;;;;;5048713;28;20449;-83
2022/06/13 03:48:42;;;;;;;2.07;1.80;;;18.10;99.90;;;;;;5048137;28;20461;-81
2022/06/13 03:51:33;;;;;;;2.80;2.03;;;18.10;99.90;;;;;;5051288;28;20397;-82
2022/06/13 03:54:28;;;;;;;2.70;2.00;;;18.10;99.90;;;;;;5045018;28;20934;-83
2022/06/13 03:57:36;;;;;;;3.93;2.00;;;18.20;99.90;;;;;;5044626;28;20554;-82
2022/06/13 04:00:27;;;;;;;2.10;1.90;;;18.20;99.90;;;;;;5044865;28;20441;-82
2022/06/13 04:03:13;;;;;;;1.83;1.70;;;18.20;99.90;;;;;;5044056;28;20446;-82
2022/06/13 04:06:02;;;;;;;2.53;2.10;;;18.10;99.90;;;;;;5045256;28;20855;-82
2022/06/13 04:08:46;;;;;;;3.63;1.90;;;18.10;99.90;;;;;;5045606;28;20895;-82
2022/06/13 04:11:57;;;;;;;5.67;2.30;;;18.20;99.90;;;;;;5045922;28;20430;-83
2022/06/13 04:15:14;;;;;;;3.70;2.70;;;18.30;99.90;;;;;;5057987;28;20426;-83
2022/06/13 04:18:35;;;;;;;1.97;1.83;;;18.30;99.90;;;;;;5041192;28;20479;-83
2022/06/13 04:21:44;;;;;;;4.20;1.93;;;18.30;99.90;;;;;;5024097;28;20407;-83
2022/06/13 04:24:50;;;;;;;1.73;1.63;;;18.30;99.90;;;;;;5024119;28;20896;-82
2022/06/13 04:28:03;;;;;;;10.23;2.30;;;18.30;99.90;;;;;;5031252;28;20412;-82
2022/06/13 04:30:50;;;;;;;5.87;2.47;;;18.30;99.90;;;;;;5031711;28;20415;-80
2022/06/13 04:33:41;;;;;;;2.10;1.90;;;18.30;99.90;;;;;;5037731;28;20511;-83
2022/06/13 04:36:27;;;;;;;7.13;2.27;;;18.20;99.90;;;;;;5039465;28;20399;-83
2022/06/13 04:39:15;;;;;;;2.70;1.93;;;18.10;99.90;;;;;;5039240;28;20395;-83
2022/06/13 04:42:02;;;;;;;9.40;2.33;;;18.10;99.90;;;;;;5038950;28;20455;-80
2022/06/13 04:44:47;;;;;;;4.00;2.40;;;18.10;99.90;;;;;;5024266;28;20403;-80
2022/06/13 04:47:32;;;;;;;2.20;2.00;;;18.10;99.90;;;;;;5039050;28;20400;-83
2022/06/13 04:50:26;;;;;;;3.40;1.87;;;18.10;99.90;;;;;;5038639;28;20476;-80
2022/06/13 04:53:18;;;;;;;3.20;2.50;;;18.20;99.90;;;;;;5038263;28;20404;-82
2022/06/13 04:56:04;;;;;;;3.57;2.93;;;18.30;99.90;;;;;;5100893;22;20499;-81
2022/06/13 04:58:53;;;;;;;5.67;2.27;;;18.40;99.90;;;;;;5118793;28;20460;-82
2022/06/13 05:01:48;;;;;;;3.60;2.70;;;18.50;99.90;;;;;;5118830;28;20552;-81
2022/06/13 05:04:33;;;;;;;6.60;2.67;;;18.60;99.90;;;;;;5104084;28;20400;-83
2022/06/13 05:07:21;;;;;;;2.30;2.10;;;18.80;99.90;;;;;;5116674;28;20404;-83
2022/06/13 05:10:14;;;;;;;2.70;2.37;;;18.80;99.90;;;;;;5119872;28;20410;-81
2022/06/13 05:13:01;;;;;;;2.80;1.90;;;18.90;99.90;;;;;;5090121;28;20404;-82
2022/06/13 05:15:53;;;;;;;2.60;2.40;;;18.90;99.90;;;;;;5119319;28;20404;-81
2022/06/13 05:18:56;;;;;;;3.30;2.50;;;19.00;99.90;;;;;;5088810;28;20427;-82
2022/06/13 05:21:52;;;;;;;2.50;2.30;;;19.10;99.90;;;;;;5111133;28;20447;-82
2022/06/13 05:24:58;;;;;;;4.47;2.37;;;19.20;99.90;;;;;;5119160;28;20416;-82
2022/06/13 05:27:48;;;;;;;2.43;2.23;;;19.30;99.90;;;;;;5112726;28;20416;-80
2022/06/13 05:30:33;;;;;;;3.43;2.20;;;19.30;99.90;;;;;;5097273;28;20417;-83
2022/06/13 05:33:25;;;;;;;6.80;2.27;;;19.30;99.90;;;;;;5116766;28;20408;-81
2022/06/13 05:36:14;;;;;;;5.27;2.00;;;19.30;99.90;;;;;;5114919;28;20420;-83
2022/06/13 05:39:04;;;;;;;7.87;2.83;;;19.30;99.90;;;;;;5093891;28;20477;-83
2022/06/13 05:41:49;;;;;;;5.80;2.67;;;19.40;99.90;;;;;;5095971;28;20429;-81
2022/06/13 05:44:34;;;;;;;5.43;2.50;;;19.50;99.90;;;;;;5082287;28;20413;-81
2022/06/13 05:47:20;;;;;;;5.73;2.40;;;19.30;99.90;;;;;;5095920;28;20444;-83
2022/06/13 05:50:05;;;;;;;6.10;2.17;;;19.30;99.90;;;;;;5095670;28;20443;-81
2022/06/13 05:52:51;;;;;;;5.17;2.10;;;19.40;99.90;;;;;;5065725;28;20454;-81
2022/06/13 05:55:38;;;;;;;6.73;2.97;;;19.50;99.90;;;;;;5083796;28;20818;-84
2022/06/13 05:58:24;;;;;;;2.97;2.60;;;19.70;99.90;;;;;;5066149;28;20421;-82
2022/06/13 06:01:15;;;;;;;4.60;2.43;;;19.80;99.90;;;;;;5092573;28;20411;-83
2022/06/13 06:04:00;;;;;;;11.30;2.93;;;19.70;99.90;;;;;;5078915;28;20404;-82
2022/06/13 06:06:47;;;;;;;7.17;2.77;;;19.90;99.90;;;;;;5076913;28;20417;-82
2022/06/13 06:09:35;;;;;;;5.37;2.27;;;19.90;99.90;;;;;;5089937;28;20850;-82
2022/06/13 06:12:19;;;;;;;6.43;2.50;;;20.00;99.90;;;;;;5081718;28;20515;-81
2022/06/13 06:15:09;;;;;;;1.90;1.80;;;20.00;99.90;;;;;;5064436;28;20404;-83
2022/06/13 06:17:54;;;;;;;3.43;3.00;;;20.00;99.90;;;;;;5072239;28;20447;-82
2022/06/13 06:20:45;;;;;;;3.30;2.50;;;19.80;99.90;;;;;;5089531;28;20457;-82
2022/06/13 06:23:30;;;;;;;10.03;3.50;;;19.70;99.90;;;;;;5093339;28;20476;-83
2022/06/13 06:26:19;;;;;;;6.40;2.07;;;20.00;99.90;;;;;;5094106;28;20427;-83
2022/06/13 06:29:05;;;;;;;6.03;2.87;;;20.10;99.90;;;;;;5086978;28;20432;-82
2022/06/13 06:31:54;;;;;;;10.80;2.73;;;20.10;99.90;;;;;;5071304;28;20403;-82
2022/06/13 06:34:38;;;;;;;4.73;2.20;;;20.00;99.90;;;;;;5089772;28;20489;-83
2022/06/13 06:37:23;;;;;;;12.67;2.80;;;20.00;99.90;;;;;;5059948;28;21166;-82
2022/06/13 06:40:08;;;;;;;3.97;2.53;;;20.00;99.90;;;;;;5064920;28;20500;-83
2022/06/13 06:42:55;;;;;;;5.10;2.40;;;20.30;99.90;;;;;;5084468;28;20468;-83
2022/06/13 06:45:41;;;;;;;4.50;2.50;;;20.30;99.90;;;;;;5087970;28;20477;-83
2022/06/13 06:48:29;;;;;;;2.70;2.30;;;20.30;99.90;;;;;;5077705;28;21059;-82
2022/06/13 06:51:15;;;;;;;5.13;2.63;;;20.30;99.90;;;;;;5082607;28;20966;-83
2022/06/13 06:59:59;;;;;;;10.10;3.07;;;20.50;99.90;;;;;;5078245;28;20470;-83
2022/06/13 07:02:43;;;;;;;5.00;3.20;;;20.40;99.90;;;;;;5081080;28;20933;-82
2022/06/13 07:05:28;;;;;;;5.60;2.50;;;20.30;99.90;;;;;;5080914;28;20431;-83
2022/06/13 07:08:16;;;;;;;3.10;2.00;;;20.40;99.90;;;;;;5078426;28;21197;-82
2022/06/13 07:14:07;;;;;;;5.67;2.40;;;20.40;99.90;;;;;;5076788;28;20782;-83
2022/06/13 07:16:53;;;;;;;3.07;2.77;;;20.20;99.90;;;;;;5079979;28;20439;-83
2022/06/13 07:19:38;;;;;;;8.43;2.73;;;20.40;99.90;;;;;;5062518;28;20470;-83
2022/06/13 07:22:24;;;;;;;6.20;4.00;;;20.50;99.90;;;;;;5087263;28;20521;-82
2022/06/13 07:25:16;;;;;;;3.90;2.00;;;20.60;99.90;;;;;;5076187;28;20510;-83
2022/06/13 07:28:01;;;;;;;6.77;2.80;;;20.70;99.90;;;;;;5075552;28;20436;-83
2022/06/13 07:30:48;;;;;;;6.60;2.33;;;20.70;99.90;;;;;;5036507;28;20485;-82
2022/06/13 07:33:33;;;;;;;6.30;2.60;;;20.30;99.90;;;;;;5036877;28;20511;-82
2022/06/13 07:36:18;;;;;;;4.07;2.47;;;20.50;99.90;;;;;;5052388;28;20449;-83
2022/06/13 07:39:06;;;;;;;5.10;2.27;;;20.70;99.90;;;;;;5037522;28;20483;-80
2022/06/13 07:41:54;;;;;;;8.53;3.17;;;20.90;99.90;;;;;;4992791;28;20471;-83
2022/06/13 07:44:41;;;;;;;6.90;4.70;;;20.90;99.90;;;;;;4984516;28;20560;-84
2022/06/13 07:47:26;;;;;;;3.77;2.20;;;21.00;99.90;;;;;;4962159;28;20469;-82
2022/06/13 07:50:13;;;;;;;3.57;2.83;;;21.00;99.90;;;;;;4960856;28;20493;-83
2022/06/13 07:52:58;;;;;;;8.80;2.63;;;21.00;99.90;;;;;;4941531;28;20431;-84
2022/06/13 07:55:43;;;;;;;4.90;2.73;;;21.10;99.90;;;;;;4955701;28;20480;-82
2022/06/13 07:58:34;;;;;;;4.93;2.33;;;21.10;99.90;;;;;;4928809;28;20459;-82
2022/06/13 08:01:23;;;;;;;5.63;2.50;;;21.20;99.90;;;;;;4959711;28;20440;-80
2022/06/13 08:04:08;;;;;;;3.60;2.80;;;21.40;99.90;;;;;;4990099;28;20951;-81
2022/06/13 08:06:53;;;;;;;4.57;3.00;;;21.30;99.90;;;;;;4974324;28;20448;-83
2022/06/13 08:09:38;;;;;;;3.87;2.47;;;21.40;99.90;;;;;;4974906;28;20420;-81
2022/06/13 08:12:26;;;;;;;6.80;3.27;;;21.50;99.90;;;;;;4981678;28;20854;-82
2022/06/13 08:15:13;;;;;;;10.00;3.70;;;21.60;99.90;;;;;;4994382;28;20443;-83
2022/06/13 08:17:57;;;;;;;4.47;2.23;;;21.80;99.90;;;;;;5026867;28;20494;-81
2022/06/13 08:20:46;;;;;;;6.47;3.00;;;21.80;99.90;;;;;;5045295;28;20960;-80
2022/06/13 08:23:30;;;;;;;3.97;3.03;;;21.80;99.90;;;;;;5034983;28;20590;-82
2022/06/13 08:26:15;;;;;;;4.20;2.50;;;21.90;99.90;;;;;;5053529;28;20465;-83
2022/06/13 08:29:05;;;;;;;4.47;3.07;;;21.90;99.90;;;;;;5003910;28;20455;-81
2022/06/13 08:31:50;;;;;;;6.63;3.03;;;21.90;99.90;;;;;;4990119;28;20486;-83
2022/06/13 08:34:37;;;;;;;3.90;2.27;;;21.90;99.90;;;;;;5015197;28;20454;-82
2022/06/13 08:37:27;;;;;;;6.97;2.47;;;22.00;99.90;;;;;;5007200;28;21139;-82
2022/06/13 08:40:12;;;;;;;10.20;2.50;;;22.00;99.90;;;;;;5010839;28;20438;-81
2022/06/13 08:43:20;;;;;;;4.40;2.70;;;22.00;99.90;;;;;;5010029;28;20498;-83
2022/06/13 08:46:25;;;;;;;4.70;3.20;;;22.20;99.90;;;;;;5010310;28;20435;-81
2022/06/13 08:49:35;;;;;;;4.33;3.93;;;22.10;99.90;;;;;;4963410;28;20549;-82
2022/06/13 08:52:45;;;;;;;8.03;3.87;;;22.20;99.90;;;;;;4957068;28;20436;-83
2022/06/13 08:55:40;;;;;;;2.97;2.70;;;22.10;99.90;;;;;;4951647;28;20465;-82
2022/06/13 08:58:38;;;;;;;8.03;3.27;;;22.20;99.90;;;;;;4959480;28;20445;-83
2022/06/13 09:01:43;;;;;;;4.00;2.30;;;22.30;99.90;;;;;;4972438;28;20446;-82
2022/06/13 09:04:35;;;;;;;7.13;2.77;;;22.30;99.90;;;;;;4971880;28;20452;-82
2022/06/13 09:07:44;;;;;;;8.30;2.93;;;22.30;99.90;;;;;;4970129;28;20449;-83
2022/06/13 09:10:39;;;;;;;2.60;2.40;;;22.40;99.90;;;;;;4989658;28;20488;-82
2022/06/13 09:13:46;;;;;;;6.97;2.67;;;22.50;99.90;;;;;;4976219;28;20492;-83
2022/06/13 09:16:34;;;;;;;3.10;2.17;;;22.60;99.90;;;;;;4982520;28;20452;-83
2022/06/13 09:19:27;;;;;;;4.77;2.97;;;22.50;99.90;;;;;;4965489;28;20459;-83
2022/06/13 09:22:21;;;;;;;3.33;2.53;;;22.60;99.90;;;;;;4963199;28;20480;-82
2022/06/13 09:25:19;;;;;;;3.23;2.70;;;22.70;99.90;;;;;;4989913;28;20439;-81
2022/06/13 09:28:28;;;;;;;2.70;2.50;;;22.50;99.90;;;;;;5044539;28;20496;-82
2022/06/13 09:31:27;;;;;;;3.20;2.90;;;22.30;99.90;;;;;;5048385;28;20973;-81
2022/06/13 09:34:21;;;;;;;22.97;3.70;;;22.10;99.90;;;;;;5046557;28;20443;-82
2022/06/13 09:37:11;;;;;;;3.90;2.43;;;22.00;99.90;;;;;;5045907;28;20447;-81
2022/06/13 09:39:56;;;;;;;7.17;3.00;;;22.30;99.90;;;;;;5092007;28;20481;-81
2022/06/13 09:42:52;;;;;;;3.80;2.17;;;22.30;99.90;;;;;;5094510;28;20489;-82
2022/06/13 09:46:12;;;;;;;6.37;2.50;;;22.50;99.90;;;;;;5073778;28;20428;-81
2022/06/13 09:49:15;;;;;;;3.13;2.77;;;22.60;98.80;;;;;;5073179;28;20807;-80
2022/06/13 09:52:12;;;;;;;5.33;2.87;;;22.50;99.90;;;;;;5066849;28;20615;-82
2022/06/13 09:55:13;;;;;;;3.90;2.30;;;22.40;99.90;;;;;;5093616;28;20424;-81
2022/06/13 09:58:17;;;;;;;2.47;1.90;;;22.40;98.10;;;;;;5073986;28;20493;-82
2022/06/13 10:01:12;;;;;;;2.43;2.23;;;22.60;95.50;;;;;;5067423;28;20475;-80
2022/06/13 10:04:05;;;;;;;1.60;1.50;;;22.90;93.40;;;;;;5079044;28;20511;-80
2022/06/13 10:07:01;;;;;;;2.47;1.80;;;23.20;90.60;;;;;;5047318;28;20451;-81
2022/06/13 10:10:05;;;;;;;4.60;1.60;;;22.90;90.10;;;;;;5076723;28;20474;-81
2022/06/13 10:13:16;;;;;;;3.07;2.10;;;22.80;91.90;;;;;;5071101;28;21070;-82
2022/06/13 10:16:20;;;;;;;4.83;2.33;;;22.90;90.40;;;;;;5083646;28;20820;-80
2022/06/13 10:19:18;;;;;;;5.90;2.70;;;22.90;91.90;;;;;;5058198;28;20429;-83
2022/06/13 10:22:29;;;;;;;4.33;1.60;;;22.90;93.50;;;;;;5070031;28;20844;-81
2022/06/13 10:25:34;;;;;;;2.30;2.07;;;23.10;93.10;;;;;;5026188;28;21636;-82
2022/06/13 10:29:00;;;;;;;2.40;1.73;;;23.00;90.30;;;;;;5019452;28;20481;-84
2022/06/13 10:32:07;;;;;;;1.70;1.60;;;23.10;85.90;;;;;;5026402;28;20482;-84
2022/06/13 10:35:08;;;;;;;2.20;1.50;;;23.00;87.50;;;;;;5028813;28;20533;-83
2022/06/13 10:38:18;;;;;;;2.70;1.80;;;23.10;81.90;;;;;;5009635;28;20482;-84
2022/06/13 10:41:06;;;;;;;2.20;1.40;;;23.20;81.60;;;;;;5020447;28;20434;-85
2022/06/13 10:43:51;;;;;;;3.20;2.43;;;23.30;79.30;;;;;;4995267;28;20447;-86
2022/06/13 10:46:36;;;;;;;2.80;1.97;;;23.40;83.10;;;;;;4999221;28;20490;-85
2022/06/13 10:49:28;;;;;;;4.50;2.40;;;23.70;84.00;;;;;;5015692;28;20439;-84
2022/06/13 10:52:19;;;;;;;5.17;2.23;;;23.70;80.90;;;;;;4995410;28;20893;-84
2022/06/13 10:55:08;;;;;;;2.63;1.67;;;23.70;82.30;;;;;;5000896;28;20469;-84
2022/06/13 10:58:06;;;;;;;1.90;1.80;;;23.80;83.20;;;;;;5043688;28;20879;-85
2022/06/13 11:01:11;;;;;;;2.73;1.40;;;23.70;82.40;;;;;;5052309;28;20557;-84
2022/06/13 11:04:10;;;;;;;1.90;1.80;;;23.90;85.00;;;;;;5047722;28;20445;-84
2022/06/13 11:07:00;;;;;;;2.90;1.50;;;24.10;78.00;;;;;;5036526;28;20518;-85
2022/06/13 11:09:54;;;;;;;3.07;1.90;;;24.10;74.50;;;;;;5055672;28;20430;-85
2022/06/13 11:12:39;;;;;;;3.13;1.93;;;24.30;77.00;;;;;;5036506;28;20437;-84
2022/06/13 11:24:58;;;;;;;1.87;1.67;;;24.60;79.70;;;;;;5074721;28;20429;-84
2022/06/13 11:27:47;;;;;;;3.10;2.90;;;24.80;76.10;;;;;;5066449;28;20452;-85
2022/06/13 11:30:49;;;;;;;4.50;2.00;;;24.70;72.90;;;;;;5073292;28;20467;-84
2022/06/13 11:33:40;;;;;;;1.93;1.73;;;24.80;78.80;;;;;;5067320;28;20934;-85
2022/06/13 11:36:27;;;;;;;3.77;2.33;;;25.00;78.80;;;;;;5090347;28;20482;-83
2022/06/13 11:39:12;;;;;;;3.20;1.80;;;24.90;76.70;;;;;;5095684;28;20428;-85
2022/06/13 11:41:57;;;;;;;2.63;2.43;;;24.60;75.70;;;;;;5083301;28;20455;-84
2022/06/13 11:44:47;;;;;;;3.60;2.20;;;24.80;74.60;;;;;;5076355;28;21077;-84
2022/06/13 11:47:49;;;;;;;2.60;2.00;;;24.60;76.30;;;;;;5080349;28;20435;-85
2022/06/13 11:50:40;;;;;;;3.67;1.83;;;24.40;76.40;;;;;;5074946;28;20443;-85
2022/06/13 11:53:41;;;;;;;3.20;2.30;;;24.30;72.80;;;;;;5044916;28;20499;-82
2022/06/13 11:56:39;;;;;;;3.93;1.70;;;24.20;79.20;;;;;;5099479;28;20520;-83
2022/06/13 11:59:27;;;;;;;5.43;2.30;;;24.20;80.80;;;;;;5090313;28;20458;-82
2022/06/13 12:02:23;;;;;;;1.93;1.70;;;24.10;80.10;;;;;;5104673;28;20454;-81
2022/06/13 12:05:27;;;;;;;2.83;2.53;;;23.80;78.90;;;;;;5078292;28;20502;-83
2022/06/13 12:08:21;;;;;;;4.60;1.90;;;23.70;81.30;;;;;;5106224;28;20434;-84
2022/06/13 12:11:21;;;;;;;4.50;2.10;;;23.30;77.60;;;;;;5093619;28;20799;-84
2022/06/13 12:14:12;;;;;;;2.30;1.90;;;23.70;77.60;;;;;;5090013;28;20491;-84
2022/06/13 12:17:17;;;;;;;3.00;2.43;;;24.20;76.40;;;;;;5074837;28;20448;-84
2022/06/13 12:20:20;;;;;;;3.70;2.67;;;24.70;74.80;;;;;;5074905;28;20458;-84
2022/06/13 12:23:12;;;;;;;3.03;1.67;;;25.30;73.50;;;;;;5028387;28;20507;-84
2022/06/13 12:26:23;;;;;;;3.23;2.00;;;25.50;73.40;;;;;;5016694;28;20495;-84
2022/06/13 12:29:36;;;;;;;4.17;1.97;;;25.50;74.00;;;;;;5016575;28;21017;-84
2022/06/13 12:32:36;;;;;;;3.57;2.07;;;25.50;71.00;;;;;;5026772;28;20506;-82
2022/06/13 12:35:43;;;;;;;4.60;1.73;;;25.60;72.40;;;;;;5016518;28;20466;-84
2022/06/13 12:38:43;;;;;;;3.20;2.53;;;26.00;71.50;;;;;;5003049;28;20955;-82
2022/06/13 12:41:57;;;;;;;5.47;2.47;;;26.10;72.70;;;;;;5006350;28;20435;-83
2022/06/13 12:45:03;;;;;;;2.57;2.00;;;26.50;73.20;;;;;;5013452;28;20873;-82
2022/06/13 12:48:15;;;;;;;3.97;2.20;;;26.30;71.80;;;;;;5019474;28;20440;-82
2022/06/13 12:51:21;;;;;;;4.00;2.53;;;25.70;69.80;;;;;;5024876;28;20973;-83
2022/06/13 12:54:33;;;;;;;3.10;2.10;;;25.30;71.70;;;;;;5024544;28;20480;-84
2022/06/13 12:57:48;;;;;;;5.10;2.70;;;25.10;69.30;;;;;;5303321;22;20482;-84
2022/06/13 13:00:51;;;;;;;8.30;2.30;;;24.90;75.10;;;;;;5005412;28;20448;-84
2022/06/13 13:04:07;;;;;;;3.73;2.93;;;25.10;75.40;;;;;;5031762;28;20519;-84
2022/06/13 13:07:26;;;;;;;4.60;2.20;;;25.50;74.90;;;;;;4991576;28;20491;-82
2022/06/13 13:10:47;;;;;;;2.27;2.07;;;25.30;72.50;;;;;;4998528;28;20459;-85
2022/06/13 13:13:49;;;;;;;4.33;2.80;;;25.60;72.80;;;;;;4999625;28;20468;-84
2022/06/13 13:16:56;;;;;;;4.20;2.03;;;25.40;76.30;;;;;;4981804;28;20602;-84
2022/06/13 13:19:56;;;;;;;8.50;2.50;;;25.10;75.80;;;;;;4998225;28;20816;-83
2022/06/13 13:23:10;;;;;;;3.27;2.30;;;24.70;72.30;;;;;;4998420;28;20466;-83
2022/06/13 13:26:11;;;;;;;4.00;2.10;;;24.50;74.70;;;;;;5000291;28;20451;-82
2022/06/13 13:29:35;;;;;;;2.83;1.87;;;24.90;77.00;;;;;;4999801;28;20430;-84
2022/06/13 13:32:33;;;;;;;2.07;1.80;;;25.30;74.30;;;;;;4990428;28;20946;-83
2022/06/13 13:35:47;;;;;;;2.77;2.20;;;25.60;74.40;;;;;;4952786;28;20438;-85
2022/06/13 13:38:52;;;;;;;4.17;2.20;;;25.40;74.70;;;;;;4964444;28;20459;-83
2022/06/13 13:41:47;;;;;;;3.80;1.70;;;25.00;77.40;;;;;;4960155;28;20429;-82
2022/06/13 13:44:38;;;;;;;2.33;2.00;;;24.70;75.80;;;;;;4933824;29;20454;-83
2022/06/13 13:47:34;;;;;;;3.87;2.67;;;24.40;77.10;;;;;;4932390;29;20530;-83
2022/06/13 13:50:24;;;;;;;4.50;2.87;;;24.00;81.40;;;;;;4957835;29;20483;-80
2022/06/13 13:53:13;;;;;;;2.87;2.23;;;24.00;81.40;;;;;;4951997;29;20501;-82
2022/06/13 13:56:20;;;;;;;2.83;2.10;;;24.00;83.40;;;;;;4950990;28;21056;-82
2022/06/13 13:59:05;;;;;;;3.20;2.90;;;24.20;82.50;;;;;;4968461;28;20453;-83
2022/06/13 14:02:09;;;;;;;2.47;2.13;;;24.30;82.30;;;;;;4972491;28;20481;-84
2022/06/13 14:05:10;;;;;;;6.50;2.37;;;24.60;82.40;;;;;;4933865;28;20455;-84
2022/06/13 14:08:05;;;;;;;6.40;3.50;;;24.70;83.70;;;;;;5028577;28;20470;-84
2022/06/13 14:10:55;;;;;;;2.30;1.83;;;24.90;81.00;;;;;;5048817;28;21000;-83
2022/06/13 14:13:43;;;;;;;2.80;2.43;;;25.00;78.90;;;;;;5028408;28;20481;-82
2022/06/13 14:16:41;;;;;;;2.90;2.03;;;24.50;80.40;;;;;;5050860;28;20515;-81
2022/06/13 14:19:30;;;;;;;2.40;2.20;;;24.80;80.30;;;;;;5047456;28;20446;-83
2022/06/13 14:22:20;;;;;;;3.53;2.10;;;25.00;76.90;;;;;;5033540;28;20813;-83
2022/06/13 14:25:21;;;;;;;2.27;1.60;;;25.40;77.20;;;;;;5041166;28;21708;-83
2022/06/13 14:28:11;;;;;;;4.27;2.30;;;25.90;74.00;;;;;;5042269;28;20976;-81
2022/06/13 14:31:06;;;;;;;3.13;2.27;;;26.10;72.30;;;;;;5032598;28;20518;-82
2022/06/13 14:37:18;;;;;;;4.57;2.47;;;26.30;70.70;;;;;;5021787;28;20446;-81
2022/06/13 14:40:20;;;;;;;12.40;2.40;;;26.00;65.60;;;;;;5019317;28;20454;-83
2022/06/13 14:43:19;;;;;;;4.00;2.60;;;26.00;63.60;;;;;;5051493;28;20464;-83
2022/06/13 14:46:30;;;;;;;2.77;2.47;;;26.00;64.60;;;;;;5056261;28;20561;-84
2022/06/13 14:49:50;;;;;;;4.70;2.87;;;25.80;63.90;;;;;;5052088;28;20444;-84
2022/06/13 14:52:35;;;;;;;3.60;2.10;;;25.90;64.90;;;;;;5040319;28;20413;-83
2022/06/13 14:55:20;;;;;;;4.65;2.50;;;26.00;63.50;;;;;;5029264;28;20511;-83
2022/06/13 14:58:05;;;;;;;2.50;2.30;;;26.10;63.80;;;;;;5039808;28;20253;-83
2022/06/13 15:01:11;;;;;;;4.67;2.70;;;26.00;64.60;;;;;;5043372;28;20407;-83
2022/06/13 15:04:18;;;;;;;3.50;2.53;;;26.00;64.20;;;;;;5028983;28;20453;-83
2022/06/13 15:07:14;;;;;;;5.70;2.90;;;25.70;66.40;;;;;;5051252;28;20825;-82
2022/06/13 15:10:06;;;;;;;7.00;2.90;;;25.80;64.80;;;;;;5057782;28;20442;-83
2022/06/13 15:12:51;;;;;;;6.80;2.40;;;26.10;63.80;;;;;;5050964;28;20435;-83
2022/06/13 15:15:37;;;;;;;3.10;2.63;;;26.10;63.60;;;;;;5034772;28;20437;-83
2022/06/13 15:18:29;;;;;;;5.13;3.17;;;26.00;65.00;;;;;;5054054;28;20489;-83
2022/06/13 15:21:18;;;;;;;3.03;2.73;;;25.20;63.30;;;;;;5048538;28;20529;-82
2022/06/13 15:24:09;;;;;;;3.50;2.60;;;25.40;71.10;;;;;;5052772;28;20545;-81
2022/06/13 15:27:05;;;;;;;4.53;2.43;;;25.70;66.90;;;;;;5043662;28;20448;-82
2022/06/13 15:30:12;;;;;;;4.40;3.00;;;25.60;69.80;;;;;;5036776;28;20429;-83